createdAt,value
2018-09-06T00:01:07.009Z,92.40
2018-09-06T00:03:34.156Z,94.99
2018-09-06T00:06:01.540Z,94.26
2018-09-06T00:08:28.683Z,94.03
2018-09-06T00:10:55.789Z,93.51
2018-09-06T00:13:23.132Z,92.44
2018-09-06T00:15:50.230Z,93.64
2018-09-06T00:18:17.381Z,95.45
2018-09-06T00:20:44.505Z,93.46
2018-09-06T00:23:11.712Z,92.86
2018-09-06T00:25:38.941Z,92.60
2018-09-06T00:28:06.564Z,92.40
2018-09-06T00:30:33.709Z,92.41
2018-09-06T00:33:00.869Z,92.66
2018-09-06T00:35:28.043Z,93.05
2018-09-06T00:37:55.183Z,93.34
2018-09-06T00:40:22.481Z,92.84
2018-09-06T00:42:49.711Z,94.10
2018-09-06T00:45:16.847Z,95.58
2018-09-06T00:47:44.081Z,93.69
2018-09-06T00:50:17.375Z,93.48
2018-09-06T00:52:45.690Z,93.12
2018-09-06T00:55:12.844Z,93.13
2018-09-06T00:57:40.010Z,92.79
2018-09-06T01:00:07.186Z,94.15
2018-09-06T01:02:34.357Z,94.92
2018-09-06T01:05:01.488Z,93.52
2018-09-06T01:07:28.692Z,93.00
2018-09-06T01:09:55.899Z,93.09
2018-09-06T01:12:23.125Z,92.17
2018-09-06T01:14:50.385Z,92.95
2018-09-06T01:17:17.485Z,93.39
2018-09-06T01:19:44.768Z,93.23
2018-09-06T01:22:12.006Z,93.81
2018-09-06T01:24:39.174Z,93.35
2018-09-06T01:27:06.461Z,96.25
2018-09-06T01:29:33.769Z,98.48
2018-09-06T01:32:01.283Z,97.43
2018-09-06T01:34:28.527Z,94.92
2018-09-06T01:36:55.638Z,94.79
2018-09-06T01:39:22.925Z,94.44
2018-09-06T01:41:50.307Z,93.24
2018-09-06T01:44:17.500Z,94.24
2018-09-06T01:46:44.649Z,93.57
2018-09-06T01:49:11.829Z,93.27
2018-09-06T01:51:39.015Z,95.23
2018-09-06T01:54:06.240Z,95.22
2018-09-06T01:56:33.404Z,96.33
2018-09-06T01:59:00.485Z,94.73
2018-09-06T02:01:27.891Z,94.65
2018-09-06T02:03:55.770Z,96.30
2018-09-06T02:06:22.917Z,97.98
2018-09-06T02:08:50.138Z,96.51
2018-09-06T02:11:17.350Z,95.50
2018-09-06T02:13:44.604Z,94.87
2018-09-06T02:16:11.844Z,94.12
2018-09-06T02:18:38.961Z,93.58
2018-09-06T02:21:06.085Z,93.96
2018-09-06T02:23:33.264Z,92.98
2018-09-06T02:26:00.633Z,93.21
2018-09-06T02:28:27.797Z,92.84
2018-09-06T02:30:54.972Z,94.65
2018-09-06T02:33:22.108Z,96.37
2018-09-06T02:35:49.424Z,95.40
2018-09-06T02:38:16.575Z,93.99
2018-09-06T02:40:43.764Z,93.66
2018-09-06T02:43:12.075Z,93.22
2018-09-06T02:45:39.929Z,93.05
2018-09-06T02:48:07.037Z,92.61
2018-09-06T02:50:39.846Z,92.30
2018-09-06T02:53:07.033Z,93.05
2018-09-06T02:55:34.268Z,92.91
2018-09-06T02:58:01.631Z,93.35
2018-09-06T03:00:30.134Z,93.14
2018-09-06T03:02:57.289Z,93.07
2018-09-06T03:05:25.153Z,92.51
2018-09-06T03:07:53.161Z,91.70
2018-09-06T03:10:21.133Z,91.50
2018-09-06T03:12:48.694Z,92.20
2018-09-06T03:15:16.179Z,92.53
2018-09-06T03:17:43.292Z,92.35
2018-09-06T03:20:10.808Z,92.99
2018-09-06T03:22:38.041Z,92.30
2018-09-06T03:25:05.624Z,93.60
2018-09-06T03:27:32.832Z,93.61
2018-09-06T03:29:59.949Z,94.40
2018-09-06T03:32:27.089Z,97.81
2018-09-06T03:34:54.237Z,96.13
2018-09-06T03:37:21.833Z,93.59
2018-09-06T03:39:49.146Z,94.79
2018-09-06T03:42:16.515Z,94.19
2018-09-06T03:44:43.683Z,93.30
2018-09-06T03:47:10.841Z,93.96
2018-09-06T03:49:38.012Z,93.09
2018-09-06T03:52:05.165Z,94.10
2018-09-06T03:54:33.196Z,93.77
2018-09-06T03:57:00.412Z,93.02
2018-09-06T03:59:27.645Z,93.12
2018-09-06T04:01:54.876Z,92.32
2018-09-06T04:04:22.036Z,92.15
2018-09-06T04:06:49.178Z,91.46
2018-09-06T04:09:16.461Z,91.62
2018-09-06T04:11:43.683Z,92.33
2018-09-06T04:14:10.923Z,96.13
2018-09-06T04:16:38.062Z,97.27
2018-09-06T04:19:05.527Z,97.86
2018-09-06T04:21:32.704Z,98.04
2018-09-06T04:23:59.951Z,96.34
2018-09-06T04:26:27.060Z,95.54
2018-09-06T04:28:54.289Z,96.73
2018-09-06T04:31:21.417Z,95.13
2018-09-06T04:33:48.744Z,94.44
2018-09-06T04:36:15.993Z,94.35
2018-09-06T04:38:43.128Z,94.63
2018-09-06T04:41:10.381Z,94.39
2018-09-06T04:43:37.631Z,94.50
2018-09-06T04:46:04.791Z,94.54
2018-09-06T04:48:32.119Z,94.37
2018-09-06T04:50:59.356Z,93.96
2018-09-06T04:53:26.508Z,93.75
2018-09-06T04:55:53.670Z,94.37
2018-09-06T04:58:20.813Z,93.71
2018-09-06T05:00:47.931Z,94.20
2018-09-06T05:03:15.265Z,97.45
2018-09-06T05:05:42.396Z,96.92
2018-09-06T05:08:09.591Z,95.70
2018-09-06T05:10:36.764Z,95.03
2018-09-06T05:13:03.912Z,94.77
2018-09-06T05:15:31.153Z,96.60
2018-09-06T05:17:58.404Z,97.26
2018-09-06T05:20:25.521Z,95.09
2018-09-06T05:22:52.829Z,95.10
2018-09-06T05:25:20.015Z,94.26
2018-09-06T05:27:47.155Z,94.33
2018-09-06T05:30:14.367Z,94.83
2018-09-06T05:32:41.500Z,95.29
2018-09-06T05:35:08.704Z,95.65
2018-09-06T05:37:35.809Z,96.79
2018-09-06T05:40:03.956Z,96.48
2018-09-06T05:42:31.280Z,97.41
2018-09-06T05:44:58.368Z,96.33
2018-09-06T05:47:25.535Z,95.28
2018-09-06T05:49:52.745Z,94.50
2018-09-06T05:52:20.032Z,94.35
2018-09-06T05:54:47.230Z,95.17
2018-09-06T05:57:16.896Z,93.92
2018-09-06T05:59:44.068Z,93.75
2018-09-06T06:02:11.216Z,93.98
2018-09-06T06:04:38.383Z,96.28
2018-09-06T06:07:05.585Z,96.61
2018-09-06T06:09:32.706Z,95.55
2018-09-06T06:11:59.853Z,95.01
2018-09-06T06:14:27.128Z,94.52
2018-09-06T06:16:54.225Z,94.16
2018-09-06T06:19:21.459Z,94.38
2018-09-06T06:21:48.640Z,94.82
2018-09-06T06:24:15.829Z,94.65
2018-09-06T06:26:42.999Z,94.54
2018-09-06T06:29:10.112Z,91.90
2018-09-06T06:31:37.272Z,91.17
2018-09-06T06:34:04.437Z,92.78
2018-09-06T06:36:31.596Z,93.09
2018-09-06T06:38:58.732Z,92.67
2018-09-06T06:41:25.920Z,90.89
2018-09-06T06:43:53.072Z,88.58
2018-09-06T06:46:20.441Z,88.62
2018-09-06T06:48:47.613Z,86.12
2018-09-06T06:51:14.757Z,85.04
2018-09-06T06:53:41.955Z,83.99
2018-09-06T06:56:09.120Z,83.95
2018-09-06T06:58:36.314Z,84.54
2018-09-06T07:01:03.543Z,84.48
2018-09-06T07:03:30.661Z,82.02
2018-09-06T07:05:57.820Z,82.99
2018-09-06T07:08:25.064Z,82.82
2018-09-06T07:10:52.154Z,84.71
2018-09-06T07:13:19.361Z,82.12
2018-09-06T07:15:46.476Z,83.16
2018-09-06T07:18:13.718Z,83.10
2018-09-06T07:20:40.883Z,82.45
2018-09-06T07:23:08.003Z,80.73
2018-09-06T07:25:35.094Z,80.39
2018-09-06T07:28:02.335Z,79.43
2018-09-06T07:30:29.522Z,77.91
2018-09-06T07:32:56.648Z,79.43
2018-09-06T07:35:23.983Z,75.13
2018-09-06T07:37:51.065Z,74.55
2018-09-06T07:40:18.984Z,74.14
2018-09-06T07:42:46.132Z,73.74
2018-09-06T07:45:13.235Z,74.27
2018-09-06T07:47:40.582Z,72.50
2018-09-06T07:50:07.813Z,71.46
2018-09-06T07:52:34.919Z,71.06
2018-09-06T07:55:02.568Z,71.09
2018-09-06T07:57:30.127Z,71.53
2018-09-06T07:59:57.285Z,69.54
2018-09-06T08:02:24.473Z,69.05
2018-09-06T08:04:51.625Z,69.29
2018-09-06T08:07:18.733Z,69.59
2018-09-06T08:09:45.926Z,69.37
2018-09-06T08:12:13.102Z,69.01
2018-09-06T08:14:40.336Z,70.60
2018-09-06T08:17:07.648Z,67.82
2018-09-06T08:19:34.821Z,68.28
2018-09-06T08:22:02.060Z,67.68
2018-09-06T08:24:29.183Z,68.90
2018-09-06T08:26:56.424Z,69.41
2018-09-06T08:29:23.600Z,68.64
2018-09-06T08:31:50.742Z,67.60
2018-09-06T08:34:17.985Z,68.26
2018-09-06T08:36:45.212Z,67.05
2018-09-06T08:39:12.389Z,66.27
2018-09-06T08:41:40.216Z,64.72
2018-09-06T08:44:07.344Z,65.12
2018-09-06T08:46:34.552Z,64.83
2018-09-06T08:49:01.805Z,65.81
2018-09-06T08:51:28.947Z,63.80
2018-09-06T08:53:56.125Z,64.28
2018-09-06T08:56:23.372Z,64.99
2018-09-06T08:58:50.572Z,63.74
2018-09-06T09:01:52.991Z,64.16
2018-09-06T09:04:20.149Z,63.81
2018-09-06T09:06:47.272Z,65.17
2018-09-06T09:09:16.013Z,64.62
2018-09-06T09:11:43.220Z,63.63
2018-09-06T09:14:17.377Z,64.45
2018-09-06T09:16:44.571Z,62.43
2018-09-06T09:19:11.701Z,62.80
2018-09-06T09:21:38.982Z,61.46
2018-09-06T09:24:06.525Z,62.88
2018-09-06T09:26:34.353Z,62.27
2018-09-06T09:29:01.561Z,62.64
2018-09-06T09:31:28.776Z,60.82
2018-09-06T09:33:55.941Z,58.55
2018-09-06T09:36:23.240Z,61.37
2018-09-06T09:38:50.997Z,59.92
2018-09-06T09:41:18.140Z,59.78
2018-09-06T09:43:45.371Z,58.92
2018-09-06T09:48:39.329Z,59.05
2018-09-06T09:51:06.502Z,57.72
2018-09-06T09:53:40.485Z,57.22
2018-09-06T09:56:07.764Z,57.38
2018-09-06T09:58:35.057Z,56.39
2018-09-06T10:01:02.177Z,58.66
2018-09-06T10:03:34.892Z,55.86
2018-09-06T10:06:07.856Z,56.13
2018-09-06T10:08:40.673Z,56.48
2018-09-06T10:11:07.809Z,57.00
2018-09-06T10:13:35.071Z,53.24
2018-09-06T10:16:02.275Z,56.11
2018-09-06T10:18:29.492Z,56.09
2018-09-06T10:20:56.677Z,55.05
2018-09-06T10:23:23.980Z,55.87
2018-09-06T10:25:51.280Z,54.17
2018-09-06T10:28:18.552Z,56.94
2018-09-06T10:30:45.727Z,54.54
2018-09-06T10:33:13.035Z,52.38
2018-09-06T10:35:40.222Z,54.06
2018-09-06T10:38:07.433Z,54.45
2018-09-06T10:40:34.689Z,52.48
2018-09-06T10:43:01.857Z,51.89
2018-09-06T10:45:29.097Z,50.97
2018-09-06T10:47:56.318Z,50.68
2018-09-06T10:50:23.476Z,51.09
2018-09-06T10:52:50.817Z,50.47
2018-09-06T10:55:18.165Z,51.45
2018-09-06T10:57:45.329Z,51.79
2018-09-06T11:00:13.263Z,52.09
2018-09-06T11:02:40.589Z,51.56
2018-09-06T11:05:07.748Z,50.01
2018-09-06T11:07:35.484Z,48.71
2018-09-06T11:10:02.757Z,48.22
2018-09-06T11:12:29.948Z,47.68
2018-09-06T11:14:57.203Z,49.14
2018-09-06T11:17:24.396Z,48.68
2018-09-06T11:19:51.652Z,48.62
2018-09-06T11:22:19.327Z,47.18
2018-09-06T11:24:46.246Z,46.83
2018-09-06T11:27:13.443Z,45.90
2018-09-06T11:29:40.637Z,45.20
2018-09-06T11:32:07.846Z,47.97
2018-09-06T11:34:35.100Z,46.18
2018-09-06T11:37:02.449Z,43.35
2018-09-06T11:39:29.641Z,42.64
2018-09-06T11:41:56.830Z,41.83
2018-09-06T11:44:23.990Z,41.61
2018-09-06T11:46:51.181Z,42.30
2018-09-06T11:49:18.492Z,42.26
2018-09-06T11:51:45.771Z,43.81
2018-09-06T11:54:12.992Z,42.62
2018-09-06T11:56:40.217Z,42.70
2018-09-06T11:59:07.350Z,42.11
2018-09-06T12:01:34.588Z,42.77
2018-09-06T12:04:02.004Z,41.90
2018-09-06T12:06:29.323Z,39.96
2018-09-06T12:08:56.455Z,40.30
2018-09-06T12:11:23.728Z,39.64
2018-09-06T12:13:50.971Z,40.58
2018-09-06T12:16:18.231Z,40.66
2018-09-06T12:18:45.478Z,40.22
2018-09-06T12:21:12.686Z,39.72
2018-09-06T12:23:40.146Z,39.20
2018-09-06T12:26:07.354Z,36.69
2018-09-06T12:28:34.582Z,36.64
2018-09-06T12:31:01.967Z,36.95
2018-09-06T12:33:29.307Z,37.71
2018-09-06T12:35:56.732Z,36.46
2018-09-06T12:38:24.024Z,36.34
2018-09-06T12:40:51.201Z,34.89
2018-09-06T12:43:18.414Z,34.38
2018-09-06T12:45:45.869Z,35.20
2018-09-06T12:48:13.172Z,33.61
2018-09-06T12:50:40.393Z,32.29
2018-09-06T12:53:07.719Z,31.95
2018-09-06T12:55:34.969Z,32.16
2018-09-06T12:58:02.445Z,32.23
2018-09-06T13:00:29.801Z,32.35
2018-09-06T13:02:57.027Z,34.71
2018-09-06T13:05:24.276Z,32.86
2018-09-06T13:07:51.639Z,32.52
2018-09-06T13:10:18.918Z,33.35
2018-09-06T13:12:46.230Z,33.28
2018-09-06T13:15:13.547Z,33.43
2018-09-06T13:17:40.769Z,33.47
2018-09-06T13:20:08.108Z,34.40
2018-09-06T13:22:35.372Z,33.55
2018-09-06T13:25:03.226Z,33.54
2018-09-06T13:27:30.477Z,36.26
2018-09-06T13:29:57.840Z,35.03
2018-09-06T13:32:25.071Z,33.48
2018-09-06T13:34:52.374Z,32.80
2018-09-06T13:37:19.572Z,32.88
2018-09-06T13:39:46.760Z,32.79
2018-09-06T13:42:14.075Z,32.64
2018-09-06T13:44:41.272Z,30.93
2018-09-06T13:47:08.543Z,31.20
2018-09-06T13:49:35.829Z,31.12
2018-09-06T13:52:03.115Z,30.55
2018-09-06T13:54:30.375Z,30.02
2018-09-06T13:56:57.665Z,30.53
2018-09-06T13:59:24.987Z,32.51
2018-09-06T14:01:52.321Z,31.42
2018-09-06T14:04:19.631Z,31.38
2018-09-06T14:06:46.889Z,30.65
2018-09-06T14:09:14.196Z,31.15
2018-09-06T14:11:41.460Z,31.83
2018-09-06T14:14:08.752Z,31.62
2018-09-06T14:16:36.101Z,32.32
2018-09-06T14:19:03.322Z,32.49
2018-09-06T14:21:30.470Z,31.88
2018-09-06T14:23:57.681Z,30.32
2018-09-06T14:26:24.861Z,29.48
2018-09-06T14:28:52.163Z,30.36
2018-09-06T14:31:19.588Z,30.00
2018-09-06T14:33:46.836Z,31.35
2018-09-06T14:36:14.310Z,31.03
2018-09-06T14:38:41.788Z,29.74
2018-09-06T14:41:08.972Z,29.94
2018-09-06T14:43:36.341Z,29.51
2018-09-06T14:46:03.568Z,28.71
2018-09-06T14:48:30.953Z,29.38
2018-09-06T14:50:58.232Z,30.63
2018-09-06T14:53:25.584Z,30.34
2018-09-06T14:55:52.847Z,30.85
2018-09-06T14:58:20.248Z,31.26
2018-09-06T15:00:47.502Z,30.39
2018-09-06T15:03:14.792Z,30.77
2018-09-06T15:05:42.119Z,31.43
2018-09-06T15:08:09.389Z,31.13
2018-09-06T15:10:36.972Z,30.86
2018-09-06T15:13:04.236Z,31.42
2018-09-06T15:15:31.552Z,30.46
2018-09-06T15:17:58.777Z,31.27
2018-09-06T15:20:26.071Z,30.80
2018-09-06T15:22:53.317Z,31.51
2018-09-06T15:25:20.647Z,31.37
2018-09-06T15:27:48.577Z,31.79
2018-09-06T15:30:15.834Z,30.67
2018-09-06T15:32:43.167Z,32.26
2018-09-06T15:35:10.462Z,31.01
2018-09-06T15:37:37.710Z,31.26
2018-09-06T15:40:05.439Z,31.69
2018-09-06T15:42:32.718Z,32.12
2018-09-06T15:45:00.003Z,33.44
2018-09-06T15:47:27.368Z,33.02
2018-09-06T15:49:54.633Z,33.92
2018-09-06T15:52:21.791Z,33.13
2018-09-06T15:54:49.285Z,33.75
2018-09-06T15:57:16.493Z,34.99
2018-09-06T15:59:43.753Z,34.61
2018-09-06T16:02:11.066Z,36.79
2018-09-06T16:04:38.295Z,36.44
2018-09-06T16:07:05.554Z,37.24
2018-09-06T16:09:32.958Z,37.26
2018-09-06T16:12:00.138Z,37.05
2018-09-06T16:14:27.358Z,37.88
2018-09-06T16:16:54.562Z,37.58
2018-09-06T16:19:21.747Z,39.62
2018-09-06T16:21:49.012Z,38.94
2018-09-06T16:24:16.423Z,40.49
2018-09-06T16:26:43.693Z,39.42
2018-09-06T16:29:10.972Z,40.13
2018-09-06T16:31:38.312Z,41.08
2018-09-06T16:34:05.976Z,41.85
2018-09-06T16:36:33.221Z,40.41
2018-09-06T16:39:00.473Z,42.07
2018-09-06T16:41:27.738Z,42.82
2018-09-06T16:43:56.120Z,43.21
2018-09-06T16:46:24.061Z,45.86
2018-09-06T16:48:51.241Z,45.17
2018-09-06T16:51:19.160Z,45.80
2018-09-06T16:53:46.468Z,46.69
2018-09-06T16:56:13.687Z,49.26
2018-09-06T16:58:40.885Z,50.15
2018-09-06T17:01:08.193Z,53.56
2018-09-06T17:03:35.408Z,53.65
2018-09-06T17:06:02.585Z,52.83
2018-09-06T17:08:29.865Z,54.37
2018-09-06T17:10:57.113Z,54.69
2018-09-06T17:13:24.454Z,55.38
2018-09-06T17:15:51.870Z,55.78
2018-09-06T17:18:19.106Z,57.06
2018-09-06T17:20:46.392Z,57.41
2018-09-06T17:23:13.714Z,57.38
2018-09-06T17:25:40.933Z,57.46
2018-09-06T17:28:08.288Z,58.02
2018-09-06T17:30:35.750Z,59.00
2018-09-06T17:33:03.009Z,60.81
2018-09-06T17:35:30.268Z,62.07
2018-09-06T17:37:57.534Z,61.94
2018-09-06T17:40:24.772Z,62.47
2018-09-06T17:42:52.223Z,63.23
2018-09-06T17:45:19.395Z,62.26
2018-09-06T17:47:46.959Z,61.37
2018-09-06T17:50:14.260Z,62.18
2018-09-06T17:52:41.621Z,62.28
2018-09-06T17:55:08.833Z,64.37
2018-09-06T17:57:36.218Z,63.66
2018-09-06T18:00:04.132Z,63.29
2018-09-06T18:02:31.377Z,64.14
2018-09-06T18:04:58.709Z,65.48
2018-09-06T18:07:26.031Z,67.40
2018-09-06T18:09:53.451Z,68.24
2018-09-06T18:12:21.373Z,68.76
2018-09-06T18:14:48.904Z,70.75
2018-09-06T18:17:16.267Z,71.82
2018-09-06T18:19:43.666Z,70.68
2018-09-06T18:22:10.914Z,70.79
2018-09-06T18:24:38.141Z,69.98
2018-09-06T18:27:05.544Z,69.98
2018-09-06T18:29:32.927Z,69.94
2018-09-06T18:32:00.344Z,70.82
2018-09-06T18:34:27.642Z,71.99
2018-09-06T18:36:54.956Z,72.76
2018-09-06T18:39:22.353Z,73.38
2018-09-06T18:41:49.724Z,73.17
2018-09-06T18:44:17.024Z,72.63
2018-09-06T18:46:44.332Z,71.27
2018-09-06T18:49:11.667Z,72.84
2018-09-06T18:51:38.909Z,72.56
2018-09-06T18:54:06.300Z,75.55
2018-09-06T18:56:33.659Z,77.11
2018-09-06T18:59:00.946Z,79.68
2018-09-06T19:01:28.216Z,79.94
2018-09-06T19:03:55.463Z,77.74
2018-09-06T19:06:22.652Z,76.35
2018-09-06T19:08:50.080Z,75.63
2018-09-06T19:11:18.075Z,74.38
2018-09-06T19:13:45.334Z,74.42
2018-09-06T19:16:12.607Z,75.90
2018-09-06T19:18:39.903Z,78.57
2018-09-06T19:21:07.185Z,79.31
2018-09-06T19:23:34.599Z,79.41
2018-09-06T19:26:01.930Z,82.32
2018-09-06T19:28:29.154Z,82.52
2018-09-06T19:30:56.506Z,83.28
2018-09-06T19:33:23.788Z,83.37
2018-09-06T19:35:51.111Z,82.39
2018-09-06T19:38:18.695Z,80.08
2018-09-06T19:40:46.009Z,82.31
2018-09-06T19:56:12.797Z,81.96
2018-09-06T19:58:40.109Z,80.76
2018-09-06T20:01:07.390Z,80.20
2018-09-06T20:03:37.935Z,79.75
2018-09-06T20:06:05.266Z,82.85
2018-09-06T20:08:32.761Z,85.80
2018-09-06T20:11:00.065Z,86.96
2018-09-06T20:13:27.283Z,88.05
2018-09-06T20:15:54.580Z,86.11
2018-09-06T20:18:21.831Z,88.68
2018-09-06T20:20:49.234Z,88.58
2018-09-06T20:23:16.531Z,89.51
2018-09-06T20:25:44.269Z,89.28
2018-09-06T20:28:11.540Z,88.75
2018-09-06T20:30:38.862Z,89.62
2018-09-06T20:33:06.165Z,87.57
2018-09-06T20:35:33.485Z,86.07
2018-09-06T20:38:00.824Z,84.75
2018-09-06T20:40:28.002Z,87.40
2018-09-06T20:42:55.290Z,87.52
2018-09-06T20:45:22.531Z,87.88
2018-09-06T20:47:49.789Z,89.29
2018-09-06T20:50:17.389Z,89.98
2018-09-06T20:52:44.707Z,89.63
2018-09-06T20:55:12.033Z,87.78
2018-09-06T20:57:39.306Z,86.80
2018-09-06T21:00:06.538Z,86.52
2018-09-06T21:02:37.457Z,87.07
2018-09-06T21:05:05.323Z,86.66
2018-09-06T21:07:32.797Z,85.64
2018-09-06T21:10:00.042Z,85.97
2018-09-06T21:12:27.305Z,85.02
2018-09-06T21:14:54.514Z,84.63
2018-09-06T21:17:21.775Z,84.64
2018-09-06T21:19:49.058Z,85.37
2018-09-06T21:22:16.407Z,84.55
2018-09-06T21:24:43.705Z,84.71
2018-09-06T21:27:10.934Z,86.86
2018-09-06T21:29:38.197Z,86.93
2018-09-06T21:32:05.538Z,86.71
2018-09-06T21:34:32.754Z,85.86
2018-09-06T21:37:00.034Z,85.75
2018-09-06T21:39:27.285Z,86.07
2018-09-06T21:41:54.515Z,85.38
2018-09-06T21:44:21.946Z,86.66
2018-09-06T21:46:49.295Z,86.24
2018-09-06T21:49:16.552Z,86.53
2018-09-06T21:51:43.940Z,85.46
2018-09-06T21:54:11.180Z,85.12
2018-09-06T21:56:38.420Z,85.49
2018-09-06T21:59:05.693Z,84.99
2018-09-06T22:01:32.932Z,85.54
2018-09-06T22:04:00.306Z,85.53
2018-09-06T22:06:27.648Z,85.08
2018-09-06T22:08:54.968Z,87.37
2018-09-06T22:11:22.105Z,89.75
2018-09-06T22:13:49.430Z,88.51
2018-09-06T22:16:16.789Z,87.57
2018-09-06T22:18:44.117Z,89.63
2018-09-06T22:21:11.372Z,88.23
2018-09-06T22:23:38.510Z,87.50
2018-09-06T22:26:05.760Z,88.08
2018-09-06T22:28:32.921Z,88.47
2018-09-06T22:31:00.256Z,89.21
2018-09-06T22:33:27.668Z,88.34
2018-09-06T22:35:54.825Z,89.03
2018-09-06T22:38:22.002Z,88.44
2018-09-06T22:40:49.208Z,88.93
2018-09-06T22:43:16.370Z,88.43
2018-09-06T22:45:43.640Z,87.40
2018-09-06T22:48:10.869Z,88.59
2018-09-06T22:50:37.981Z,89.44
2018-09-06T22:53:05.155Z,88.29
2018-09-06T22:55:32.275Z,87.21
2018-09-06T22:57:59.398Z,85.72
2018-09-06T23:00:30.052Z,86.39
2018-09-06T23:03:03.257Z,88.77
2018-09-06T23:05:30.716Z,88.63
2018-09-06T23:07:58.000Z,87.06
2018-09-06T23:10:25.176Z,86.68
2018-09-06T23:12:52.365Z,86.24
2018-09-06T23:15:19.650Z,89.41
2018-09-06T23:17:46.821Z,88.34
2018-09-06T23:20:14.068Z,90.46
2018-09-06T23:22:41.265Z,90.13
2018-09-06T23:25:09.080Z,92.29
2018-09-06T23:27:36.191Z,92.12
2018-09-06T23:30:04.492Z,92.43
2018-09-06T23:32:31.777Z,91.71
2018-09-06T23:34:58.860Z,91.01
2018-09-06T23:37:26.072Z,91.03
2018-09-06T23:39:53.168Z,91.55
2018-09-06T23:42:23.407Z,91.62
2018-09-06T23:44:50.513Z,91.13
2018-09-06T23:47:17.986Z,90.24
2018-09-06T23:49:45.136Z,89.06
2018-09-06T23:52:12.393Z,88.09
2018-09-06T23:54:39.577Z,87.88
2018-09-06T23:57:06.750Z,88.79
2018-09-06T23:59:33.955Z,88.41
